N444BC KSFO-KDEN
Flight info
| Callsign | N444BC |
|---|---|
| Flight time | 1h 59m |
| Altitude | 45000 |
| Route | TRUKN2 SYRAH Q128 JSICA LUDOH BUMMP SSKII4 |
| Aircraft | C750/M-SBDE3FGHRWXY/S |
Departure
| Time | 2026-05-06 14:38 |
|---|---|
| Airport | San Francisco International Airport (KSFO) |
Arrival
| Time | 2026-05-06 16:37 |
|---|---|
| Airport | Denver International Airport (KDEN) |
| Time | Latitude | Longitude | Altitude | Speed | Heading |
|---|---|---|---|---|---|
| 2026-05-06 14:16 | 37.62833 | -122.38270 | 17 ft | 0 kts | 298° |
| 2026-05-06 14:28 | 37.62830 | -122.38263 | 19 ft | 4 kts | 297° |
| 2026-05-06 14:28 | 37.62818 | -122.38232 | 18 ft | 4 kts | 289° |
| 2026-05-06 14:28 | 37.62813 | -122.38200 | 17 ft | 4 kts | 259° |
| 2026-05-06 14:29 | 37.62822 | -122.38180 | 18 ft | 1 kts | 207° |
| 2026-05-06 14:29 | 37.62825 | -122.38178 | 18 ft | 0 kts | 207° |
| 2026-05-06 14:31 | 37.62778 | -122.38209 | 17 ft | 15 kts | 208° |
| 2026-05-06 14:31 | 37.62685 | -122.38271 | 17 ft | 15 kts | 207° |
| 2026-05-06 14:31 | 37.62597 | -122.38302 | 17 ft | 12 kts | 146° |
| 2026-05-06 14:32 | 37.62555 | -122.38208 | 17 ft | 16 kts | 117° |
| 2026-05-06 14:32 | 37.62491 | -122.38056 | 18 ft | 20 kts | 118° |
| 2026-05-06 14:32 | 37.62427 | -122.37905 | 17 ft | 19 kts | 118° |
| 2026-05-06 14:32 | 37.62367 | -122.37761 | 18 ft | 18 kts | 117° |
| 2026-05-06 14:33 | 37.62311 | -122.37626 | 17 ft | 17 kts | 117° |
| 2026-05-06 14:33 | 37.62258 | -122.37498 | 17 ft | 16 kts | 117° |
| 2026-05-06 14:33 | 37.62207 | -122.37378 | 17 ft | 15 kts | 118° |
| 2026-05-06 14:33 | 37.62159 | -122.37265 | 17 ft | 16 kts | 118° |
| 2026-05-06 14:34 | 37.62100 | -122.37125 | 17 ft | 18 kts | 118° |
| 2026-05-06 14:34 | 37.62044 | -122.36989 | 18 ft | 17 kts | 117° |
| 2026-05-06 14:34 | 37.61990 | -122.36862 | 17 ft | 16 kts | 118° |
| 2026-05-06 14:34 | 37.61939 | -122.36741 | 20 ft | 15 kts | 118° |
| 2026-05-06 14:35 | 37.61892 | -122.36628 | 17 ft | 15 kts | 117° |
| 2026-05-06 14:35 | 37.61825 | -122.36469 | 18 ft | 22 kts | 118° |
| 2026-05-06 14:35 | 37.61754 | -122.36302 | 17 ft | 21 kts | 117° |
| 2026-05-06 14:35 | 37.61688 | -122.36143 | 17 ft | 20 kts | 117° |
| 2026-05-06 14:36 | 37.61625 | -122.35992 | 17 ft | 19 kts | 117° |
| 2026-05-06 14:36 | 37.61566 | -122.35851 | 17 ft | 18 kts | 118° |
| 2026-05-06 14:36 | 37.61509 | -122.35717 | 17 ft | 17 kts | 118° |
| 2026-05-06 14:36 | 37.61423 | -122.35683 | 17 ft | 14 kts | 211° |
| 2026-05-06 14:37 | 37.61368 | -122.35757 | 17 ft | 10 kts | 284° |
| 2026-05-06 14:37 | 37.61381 | -122.35787 | 18 ft | 0 kts | 299° |
| 2026-05-06 14:37 | 37.61474 | -122.36004 | 17 ft | 80 kts | 298° |
| 2026-05-06 14:37 | 37.61873 | -122.36951 | 217 ft | 133 kts | 298° |
| 2026-05-06 14:38 | 37.62295 | -122.37943 | 1025 ft | 131 kts | 303° |
| 2026-05-06 14:38 | 37.63029 | -122.38792 | 1425 ft | 159 kts | 328° |
| 2026-05-06 14:38 | 37.64150 | -122.39236 | 1822 ft | 183 kts | 353° |
| 2026-05-06 14:38 | 37.65503 | -122.38887 | 2076 ft | 220 kts | 26° |
| 2026-05-06 14:39 | 37.66628 | -122.37420 | 2481 ft | 251 kts | 60° |
| 2026-05-06 14:39 | 37.67304 | -122.35368 | 3509 ft | 251 kts | 70° |
| 2026-05-06 14:39 | 37.67925 | -122.33297 | 4569 ft | 257 kts | 66° |
| 2026-05-06 14:39 | 37.68613 | -122.31191 | 5570 ft | 261 kts | 65° |
| 2026-05-06 14:40 | 37.69315 | -122.29057 | 6534 ft | 266 kts | 64° |
| 2026-05-06 14:40 | 37.70018 | -122.26871 | 7464 ft | 271 kts | 65° |
| 2026-05-06 14:40 | 37.70729 | -122.24652 | 8488 ft | 274 kts | 65° |
| 2026-05-06 14:40 | 37.71452 | -122.22407 | 9510 ft | 278 kts | 66° |
| 2026-05-06 14:41 | 37.72361 | -122.20228 | 10299 ft | 285 kts | 56° |
| 2026-05-06 14:41 | 37.73519 | -122.18058 | 10548 ft | 311 kts | 54° |
| 2026-05-06 14:41 | 37.74774 | -122.15680 | 10668 ft | 339 kts | 56° |
| 2026-05-06 14:41 | 37.76072 | -122.13142 | 11301 ft | 344 kts | 56° |
| 2026-05-06 14:42 | 37.77374 | -122.10603 | 12120 ft | 346 kts | 56° |
| 2026-05-06 14:42 | 37.78703 | -122.08047 | 12858 ft | 349 kts | 55° |
| 2026-05-06 14:42 | 37.80040 | -122.05474 | 13645 ft | 350 kts | 55° |
| 2026-05-06 14:42 | 37.81374 | -122.02884 | 14358 ft | 353 kts | 55° |
| 2026-05-06 14:43 | 37.82592 | -122.00166 | 14901 ft | 361 kts | 66° |
| 2026-05-06 14:43 | 37.83251 | -121.97085 | 15542 ft | 364 kts | 75° |
| 2026-05-06 14:43 | 37.83820 | -121.93951 | 16197 ft | 367 kts | 74° |
| 2026-05-06 14:43 | 37.84404 | -121.90845 | 16799 ft | 371 kts | 74° |
| 2026-05-06 14:44 | 37.84804 | -121.88733 | 17257 ft | 374 kts | 74° |
| 2026-05-06 14:44 | 37.85405 | -121.85515 | 17964 ft | 377 kts | 74° |
| 2026-05-06 14:44 | 37.86000 | -121.82281 | 18636 ft | 371 kts | 74° |
| 2026-05-06 14:45 | 37.87189 | -121.75863 | 18981 ft | 380 kts | 74° |
| 2026-05-06 14:45 | 37.87798 | -121.72581 | 19129 ft | 387 kts | 74° |
| 2026-05-06 14:45 | 37.88405 | -121.69271 | 19903 ft | 386 kts | 74° |
| 2026-05-06 14:45 | 37.89017 | -121.65940 | 20517 ft | 391 kts | 74° |
| 2026-05-06 14:46 | 37.89638 | -121.62574 | 21153 ft | 395 kts | 74° |
| 2026-05-06 14:46 | 37.90263 | -121.59170 | 21786 ft | 399 kts | 74° |
| 2026-05-06 14:46 | 37.90892 | -121.55733 | 22424 ft | 403 kts | 74° |
| 2026-05-06 14:46 | 37.91528 | -121.52251 | 23036 ft | 407 kts | 74° |
| 2026-05-06 14:47 | 37.92167 | -121.48747 | 23713 ft | 410 kts | 74° |
| 2026-05-06 14:47 | 37.92812 | -121.45207 | 24237 ft | 414 kts | 74° |
| 2026-05-06 14:47 | 37.93461 | -121.41640 | 24784 ft | 417 kts | 74° |
| 2026-05-06 14:47 | 37.94113 | -121.38047 | 25357 ft | 419 kts | 74° |
| 2026-05-06 14:48 | 37.94767 | -121.34436 | 25886 ft | 422 kts | 74° |
| 2026-05-06 14:48 | 37.95426 | -121.30794 | 26412 ft | 425 kts | 74° |
| 2026-05-06 14:48 | 37.96088 | -121.27128 | 26934 ft | 428 kts | 74° |
| 2026-05-06 14:48 | 37.96753 | -121.23436 | 27468 ft | 431 kts | 74° |
| 2026-05-06 14:49 | 37.97419 | -121.19726 | 28007 ft | 433 kts | 74° |
| 2026-05-06 14:49 | 37.98090 | -121.15987 | 28519 ft | 437 kts | 74° |
| 2026-05-06 14:49 | 37.98766 | -121.12217 | 29024 ft | 440 kts | 74° |
| 2026-05-06 14:49 | 37.99406 | -121.08415 | 29491 ft | 444 kts | 76° |
| 2026-05-06 14:50 | 37.99997 | -121.04554 | 29977 ft | 447 kts | 76° |
| 2026-05-06 14:50 | 38.00601 | -121.00679 | 30433 ft | 450 kts | 76° |
| 2026-05-06 14:50 | 38.01211 | -120.96776 | 30845 ft | 453 kts | 76° |
| 2026-05-06 14:50 | 38.01818 | -120.92853 | 31362 ft | 453 kts | 76° |
| 2026-05-06 14:51 | 38.02415 | -120.88951 | 32046 ft | 449 kts | 76° |
| 2026-05-06 14:51 | 38.03013 | -120.85066 | 32657 ft | 448 kts | 75° |
| 2026-05-06 14:51 | 38.03608 | -120.81203 | 33257 ft | 446 kts | 75° |
| 2026-05-06 14:51 | 38.04200 | -120.77346 | 33861 ft | 445 kts | 75° |
| 2026-05-06 14:52 | 38.04788 | -120.73491 | 34461 ft | 443 kts | 75° |
| 2026-05-06 14:52 | 38.05370 | -120.69666 | 35030 ft | 441 kts | 75° |
| 2026-05-06 14:52 | 38.05949 | -120.65859 | 35606 ft | 439 kts | 75° |
| 2026-05-06 14:52 | 38.06526 | -120.62062 | 36198 ft | 436 kts | 75° |
| 2026-05-06 14:53 | 38.07090 | -120.58343 | 36792 ft | 434 kts | 75° |
| 2026-05-06 14:53 | 38.07657 | -120.54592 | 37412 ft | 432 kts | 74° |
| 2026-05-06 14:53 | 38.08218 | -120.50863 | 38021 ft | 429 kts | 74° |
| 2026-05-06 14:53 | 38.08777 | -120.47149 | 38631 ft | 427 kts | 74° |
| 2026-05-06 14:54 | 38.09332 | -120.43454 | 39148 ft | 426 kts | 74° |
| 2026-05-06 14:54 | 38.09888 | -120.39752 | 39521 ft | 427 kts | 74° |
| 2026-05-06 14:54 | 38.10442 | -120.36047 | 39942 ft | 427 kts | 74° |
| 2026-05-06 14:54 | 38.10994 | -120.32342 | 40326 ft | 428 kts | 74° |
| 2026-05-06 14:55 | 38.11547 | -120.28620 | 40668 ft | 430 kts | 75° |
| 2026-05-06 14:55 | 38.12108 | -120.24840 | 41047 ft | 430 kts | 75° |
| 2026-05-06 14:55 | 38.12654 | -120.21150 | 41425 ft | 431 kts | 75° |
| 2026-05-06 14:55 | 38.13208 | -120.17406 | 41782 ft | 432 kts | 75° |
| 2026-05-06 14:56 | 38.13762 | -120.13647 | 42107 ft | 434 kts | 75° |
| 2026-05-06 14:56 | 38.14315 | -120.09881 | 42499 ft | 434 kts | 75° |
| 2026-05-06 14:56 | 38.14870 | -120.06103 | 42852 ft | 435 kts | 75° |
| 2026-05-06 14:56 | 38.15423 | -120.02320 | 43165 ft | 437 kts | 75° |
| 2026-05-06 14:57 | 38.15979 | -119.98515 | 43492 ft | 438 kts | 75° |
| 2026-05-06 14:57 | 38.16534 | -119.94708 | 43822 ft | 439 kts | 76° |
| 2026-05-06 14:57 | 38.17089 | -119.90890 | 44115 ft | 440 kts | 76° |
| 2026-05-06 14:57 | 38.17644 | -119.87060 | 44430 ft | 441 kts | 76° |
| 2026-05-06 14:58 | 38.18199 | -119.83219 | 44732 ft | 442 kts | 76° |
| 2026-05-06 14:58 | 38.18755 | -119.79364 | 44933 ft | 445 kts | 76° |
| 2026-05-06 14:58 | 38.19314 | -119.75487 | 45117 ft | 448 kts | 76° |
| 2026-05-06 14:59 | 38.20447 | -119.67594 | 45163 ft | 460 kts | 76° |
| 2026-05-06 14:59 | 38.21605 | -119.59475 | 45162 ft | 474 kts | 76° |
| 2026-05-06 15:00 | 38.22787 | -119.51142 | 45160 ft | 482 kts | 76° |
| 2026-05-06 15:00 | 38.23969 | -119.42761 | 45159 ft | 481 kts | 77° |
| 2026-05-06 15:01 | 38.25144 | -119.34404 | 45146 ft | 481 kts | 77° |
| 2026-05-06 15:01 | 38.26314 | -119.26018 | 45144 ft | 481 kts | 77° |
| 2026-05-06 15:02 | 38.27476 | -119.17654 | 45131 ft | 479 kts | 77° |
| 2026-05-06 15:02 | 38.28631 | -119.09295 | 45115 ft | 480 kts | 77° |
| 2026-05-06 15:03 | 38.29782 | -119.00923 | 45113 ft | 480 kts | 77° |
| 2026-05-06 15:03 | 38.30918 | -118.92603 | 45112 ft | 480 kts | 77° |
| 2026-05-06 15:04 | 38.32055 | -118.84247 | 45130 ft | 479 kts | 77° |
| 2026-05-06 15:04 | 38.33185 | -118.75879 | 45139 ft | 479 kts | 77° |
| 2026-05-06 15:05 | 38.34310 | -118.67505 | 45152 ft | 479 kts | 77° |
| 2026-05-06 15:05 | 38.35427 | -118.59153 | 45150 ft | 476 kts | 77° |
| 2026-05-06 15:06 | 38.36534 | -118.50826 | 45140 ft | 478 kts | 77° |
| 2026-05-06 15:06 | 38.37637 | -118.42473 | 45131 ft | 478 kts | 77° |
| 2026-05-06 15:07 | 38.38736 | -118.34117 | 45113 ft | 477 kts | 77° |
| 2026-05-06 15:07 | 38.39824 | -118.25790 | 45080 ft | 479 kts | 77° |
| 2026-05-06 15:08 | 38.40910 | -118.17425 | 45071 ft | 478 kts | 77° |
| 2026-05-06 15:08 | 38.41991 | -118.09058 | 45070 ft | 478 kts | 77° |
| 2026-05-06 15:09 | 38.43065 | -118.00688 | 45085 ft | 479 kts | 77° |
| 2026-05-06 15:09 | 38.44135 | -117.92313 | 45075 ft | 479 kts | 77° |
| 2026-05-06 15:10 | 38.45198 | -117.83936 | 45067 ft | 478 kts | 77° |
| 2026-05-06 15:10 | 38.46255 | -117.75557 | 45070 ft | 478 kts | 77° |
| 2026-05-06 15:11 | 38.47306 | -117.67174 | 45076 ft | 478 kts | 77° |
| 2026-05-06 15:11 | 38.48351 | -117.58791 | 45078 ft | 479 kts | 77° |
| 2026-05-06 15:12 | 38.49383 | -117.50463 | 45081 ft | 479 kts | 77° |
| 2026-05-06 15:12 | 38.50420 | -117.42050 | 45086 ft | 480 kts | 77° |
| 2026-05-06 15:13 | 38.51449 | -117.33637 | 45085 ft | 480 kts | 77° |
| 2026-05-06 15:13 | 38.52009 | -117.25128 | 45078 ft | 485 kts | 88° |
| 2026-05-06 15:14 | 38.51742 | -117.16507 | 45104 ft | 486 kts | 88° |
| 2026-05-06 15:14 | 38.51566 | -117.07883 | 45103 ft | 485 kts | 88° |
| 2026-05-06 15:15 | 38.51329 | -116.99262 | 45070 ft | 487 kts | 88° |
| 2026-05-06 15:15 | 38.51113 | -116.90588 | 45085 ft | 488 kts | 88° |
| 2026-05-06 15:16 | 38.50877 | -116.81926 | 45087 ft | 489 kts | 88° |
| 2026-05-06 15:16 | 38.50641 | -116.73253 | 45094 ft | 489 kts | 88° |
| 2026-05-06 15:17 | 38.50395 | -116.64574 | 45075 ft | 488 kts | 88° |
| 2026-05-06 15:17 | 38.50145 | -116.55906 | 45087 ft | 489 kts | 89° |
| 2026-05-06 15:18 | 38.49887 | -116.47211 | 45067 ft | 490 kts | 89° |
| 2026-05-06 15:18 | 38.49622 | -116.38524 | 45060 ft | 490 kts | 89° |
| 2026-05-06 15:19 | 38.49352 | -116.29839 | 45055 ft | 490 kts | 89° |
| 2026-05-06 15:19 | 38.49070 | -116.21140 | 45069 ft | 492 kts | 89° |
| 2026-05-06 15:20 | 38.48793 | -116.12384 | 45047 ft | 494 kts | 89° |
| 2026-05-06 15:20 | 38.48499 | -116.03642 | 45047 ft | 493 kts | 89° |
| 2026-05-06 15:21 | 38.48197 | -115.94902 | 45064 ft | 493 kts | 89° |
| 2026-05-06 15:21 | 38.47896 | -115.86198 | 45067 ft | 495 kts | 90° |
| 2026-05-06 15:22 | 38.47580 | -115.77429 | 45059 ft | 494 kts | 89° |
| 2026-05-06 15:22 | 38.47264 | -115.68671 | 45058 ft | 494 kts | 90° |
| 2026-05-06 15:23 | 38.46937 | -115.59897 | 45058 ft | 497 kts | 90° |
| 2026-05-06 15:23 | 38.46604 | -115.51099 | 45048 ft | 496 kts | 90° |
| 2026-05-06 15:24 | 38.46264 | -115.42300 | 45037 ft | 498 kts | 90° |
| 2026-05-06 15:24 | 38.45917 | -115.33494 | 45038 ft | 497 kts | 90° |
| 2026-05-06 15:25 | 38.45563 | -115.24653 | 45049 ft | 499 kts | 90° |
| 2026-05-06 15:25 | 38.45201 | -115.15814 | 45041 ft | 499 kts | 90° |
| 2026-05-06 15:26 | 38.44833 | -115.06972 | 45040 ft | 499 kts | 90° |
| 2026-05-06 15:26 | 38.44458 | -114.98134 | 45040 ft | 500 kts | 90° |
| 2026-05-06 15:27 | 38.44076 | -114.89279 | 45044 ft | 500 kts | 90° |
| 2026-05-06 15:27 | 38.43687 | -114.80421 | 45041 ft | 500 kts | 90° |
| 2026-05-06 15:28 | 38.43291 | -114.71570 | 45044 ft | 500 kts | 90° |
| 2026-05-06 15:28 | 38.42889 | -114.62718 | 45043 ft | 500 kts | 91° |
| 2026-05-06 15:29 | 38.42480 | -114.53864 | 45044 ft | 500 kts | 91° |
| 2026-05-06 15:29 | 38.42067 | -114.45067 | 45042 ft | 500 kts | 91° |
| 2026-05-06 15:30 | 38.41644 | -114.36204 | 45053 ft | 501 kts | 91° |
| 2026-05-06 15:30 | 38.41214 | -114.27329 | 45059 ft | 501 kts | 91° |
| 2026-05-06 15:31 | 38.40778 | -114.18466 | 45049 ft | 501 kts | 91° |
| 2026-05-06 15:31 | 38.40335 | -114.09599 | 45043 ft | 501 kts | 91° |
| 2026-05-06 15:32 | 38.39730 | -113.97760 | 45040 ft | 504 kts | 91° |
| 2026-05-06 15:32 | 38.39271 | -113.88843 | 45023 ft | 505 kts | 91° |
| 2026-05-06 15:33 | 38.38805 | -113.79907 | 45011 ft | 506 kts | 91° |
| 2026-05-06 15:33 | 38.38324 | -113.70953 | 45017 ft | 508 kts | 91° |
| 2026-05-06 15:34 | 38.37839 | -113.61959 | 45017 ft | 508 kts | 91° |
| 2026-05-06 15:34 | 38.37346 | -113.52985 | 45015 ft | 507 kts | 91° |
| 2026-05-06 15:35 | 38.36848 | -113.44006 | 45014 ft | 508 kts | 91° |
| 2026-05-06 15:35 | 38.36340 | -113.34989 | 45057 ft | 512 kts | 91° |
| 2026-05-06 15:36 | 38.35822 | -113.25963 | 45088 ft | 510 kts | 91° |
| 2026-05-06 15:36 | 38.35301 | -113.16947 | 45115 ft | 511 kts | 91° |
| 2026-05-06 15:37 | 38.34771 | -113.07922 | 45127 ft | 513 kts | 91° |
| 2026-05-06 15:37 | 38.34232 | -112.98849 | 45134 ft | 513 kts | 91° |
| 2026-05-06 15:38 | 38.33685 | -112.89778 | 45118 ft | 513 kts | 91° |
| 2026-05-06 15:38 | 38.33132 | -112.80716 | 45087 ft | 513 kts | 91° |
| 2026-05-06 15:39 | 38.32571 | -112.71627 | 45067 ft | 518 kts | 91° |
| 2026-05-06 15:39 | 38.31998 | -112.62493 | 45039 ft | 516 kts | 92° |
| 2026-05-06 15:40 | 38.31421 | -112.53369 | 45004 ft | 516 kts | 92° |
| 2026-05-06 15:40 | 38.30836 | -112.44262 | 45008 ft | 517 kts | 92° |
| 2026-05-06 15:41 | 38.30241 | -112.35100 | 45001 ft | 519 kts | 92° |
| 2026-05-06 15:41 | 38.29639 | -112.25965 | 44971 ft | 518 kts | 92° |
| 2026-05-06 15:42 | 38.29036 | -112.16859 | 44970 ft | 517 kts | 92° |
| 2026-05-06 15:42 | 38.28420 | -112.07738 | 44977 ft | 517 kts | 92° |
| 2026-05-06 15:43 | 38.27800 | -111.98617 | 44971 ft | 518 kts | 93° |
| 2026-05-06 15:43 | 38.27172 | -111.89497 | 44951 ft | 517 kts | 93° |
| 2026-05-06 15:44 | 38.26536 | -111.80375 | 44952 ft | 517 kts | 93° |
| 2026-05-06 15:44 | 38.25893 | -111.71246 | 44953 ft | 518 kts | 93° |
| 2026-05-06 15:45 | 38.25243 | -111.62120 | 44945 ft | 518 kts | 93° |
| 2026-05-06 15:45 | 38.24589 | -111.53048 | 44942 ft | 518 kts | 93° |
| 2026-05-06 15:46 | 38.23925 | -111.43924 | 44924 ft | 518 kts | 94° |
| 2026-05-06 15:46 | 38.23255 | -111.34798 | 44933 ft | 519 kts | 93° |
| 2026-05-06 15:47 | 38.22573 | -111.25691 | 44937 ft | 518 kts | 93° |
| 2026-05-06 15:47 | 38.21897 | -111.16568 | 44941 ft | 516 kts | 93° |
| 2026-05-06 15:48 | 38.21197 | -111.07469 | 44921 ft | 514 kts | 94° |
| 2026-05-06 15:48 | 38.20508 | -110.98387 | 44950 ft | 518 kts | 94° |
| 2026-05-06 15:49 | 38.19794 | -110.89277 | 44983 ft | 519 kts | 94° |
| 2026-05-06 15:49 | 38.19083 | -110.80161 | 45020 ft | 518 kts | 94° |
| 2026-05-06 15:50 | 38.18357 | -110.70992 | 45017 ft | 522 kts | 94° |
| 2026-05-06 15:50 | 38.17623 | -110.61817 | 44943 ft | 521 kts | 94° |
| 2026-05-06 15:51 | 38.16885 | -110.52656 | 44940 ft | 521 kts | 94° |
| 2026-05-06 15:51 | 38.16137 | -110.43486 | 44956 ft | 523 kts | 95° |
| 2026-05-06 15:52 | 38.15379 | -110.34279 | 44959 ft | 524 kts | 95° |
| 2026-05-06 15:52 | 38.14617 | -110.25088 | 44957 ft | 523 kts | 95° |
| 2026-05-06 15:53 | 38.13845 | -110.15899 | 44963 ft | 523 kts | 95° |
| 2026-05-06 15:53 | 38.13449 | -110.06671 | 44974 ft | 524 kts | 90° |
| 2026-05-06 15:54 | 38.13260 | -109.97432 | 44977 ft | 523 kts | 91° |
| 2026-05-06 15:54 | 38.12969 | -109.88197 | 44989 ft | 524 kts | 90° |
| 2026-05-06 15:55 | 38.12740 | -109.78949 | 45013 ft | 524 kts | 91° |
| 2026-05-06 15:55 | 38.12455 | -109.69667 | 44976 ft | 527 kts | 91° |
| 2026-05-06 15:56 | 38.12191 | -109.60388 | 44990 ft | 527 kts | 92° |
| 2026-05-06 15:56 | 38.11913 | -109.51113 | 44978 ft | 529 kts | 92° |
| 2026-05-06 15:57 | 38.11620 | -109.41792 | 44980 ft | 531 kts | 92° |
| 2026-05-06 15:57 | 38.11324 | -109.32421 | 44977 ft | 530 kts | 92° |
| 2026-05-06 15:58 | 38.11018 | -109.23077 | 44964 ft | 530 kts | 92° |
| 2026-05-06 15:58 | 38.10706 | -109.13722 | 44969 ft | 530 kts | 92° |
| 2026-05-06 15:59 | 38.10385 | -109.04332 | 44972 ft | 534 kts | 92° |
| 2026-05-06 15:59 | 38.10525 | -108.94951 | 44932 ft | 532 kts | 81° |
| 2026-05-06 16:00 | 38.12636 | -108.85994 | 45094 ft | 530 kts | 63° |
| 2026-05-06 16:00 | 38.14329 | -108.81848 | 44948 ft | 528 kts | 58° |
| 2026-05-06 16:00 | 38.16189 | -108.77835 | 44958 ft | 527 kts | 57° |
| 2026-05-06 16:01 | 38.18054 | -108.73799 | 45257 ft | 532 kts | 59° |
| 2026-05-06 16:01 | 38.19710 | -108.69597 | 45310 ft | 532 kts | 63° |
| 2026-05-06 16:01 | 38.22799 | -108.61039 | 45343 ft | 532 kts | 61° |
| 2026-05-06 16:02 | 38.26225 | -108.52710 | 45346 ft | 532 kts | 61° |
| 2026-05-06 16:02 | 38.29414 | -108.44207 | 45315 ft | 532 kts | 62° |
| 2026-05-06 16:03 | 38.32759 | -108.35772 | 45209 ft | 536 kts | 61° |
| 2026-05-06 16:03 | 38.36016 | -108.27238 | 45100 ft | 534 kts | 62° |
| 2026-05-06 16:04 | 38.39284 | -108.18820 | 45004 ft | 528 kts | 62° |
| 2026-05-06 16:04 | 38.42519 | -108.10387 | 45038 ft | 530 kts | 62° |
| 2026-05-06 16:05 | 38.45760 | -108.01941 | 45078 ft | 530 kts | 62° |
| 2026-05-06 16:05 | 38.48954 | -107.93527 | 45092 ft | 530 kts | 62° |
| 2026-05-06 16:06 | 38.52170 | -107.84983 | 45092 ft | 530 kts | 62° |
| 2026-05-06 16:06 | 38.53756 | -107.80801 | 44949 ft | 530 kts | 62° |
| 2026-05-06 16:06 | 38.55352 | -107.76561 | 44947 ft | 530 kts | 62° |
| 2026-05-06 16:07 | 38.58540 | -107.68048 | 44948 ft | 532 kts | 62° |
| 2026-05-06 16:07 | 38.61718 | -107.59575 | 44590 ft | 519 kts | 62° |
| 2026-05-06 16:08 | 38.63254 | -107.55453 | 44067 ft | 507 kts | 62° |
| 2026-05-06 16:08 | 38.64756 | -107.51425 | 43578 ft | 496 kts | 62° |
| 2026-05-06 16:08 | 38.66230 | -107.47482 | 43105 ft | 488 kts | 62° |
| 2026-05-06 16:08 | 38.67706 | -107.43596 | 42622 ft | 484 kts | 62° |
| 2026-05-06 16:09 | 38.69187 | -107.39731 | 42180 ft | 484 kts | 62° |
| 2026-05-06 16:09 | 38.70666 | -107.35832 | 41695 ft | 491 kts | 62° |
| 2026-05-06 16:09 | 38.72155 | -107.31864 | 41201 ft | 496 kts | 62° |
| 2026-05-06 16:09 | 38.73653 | -107.27880 | 40735 ft | 496 kts | 62° |
| 2026-05-06 16:10 | 38.75146 | -107.23926 | 40236 ft | 491 kts | 62° |
| 2026-05-06 16:10 | 38.76633 | -107.19992 | 39759 ft | 489 kts | 62° |
| 2026-05-06 16:10 | 38.78108 | -107.16069 | 39271 ft | 489 kts | 62° |
| 2026-05-06 16:10 | 38.79576 | -107.12147 | 38796 ft | 489 kts | 62° |
| 2026-05-06 16:11 | 38.81049 | -107.08212 | 38271 ft | 488 kts | 62° |
| 2026-05-06 16:11 | 38.82516 | -107.04298 | 37808 ft | 486 kts | 61° |
| 2026-05-06 16:11 | 38.83984 | -107.00375 | 37312 ft | 490 kts | 61° |
| 2026-05-06 16:11 | 38.85457 | -106.96432 | 36817 ft | 491 kts | 61° |
| 2026-05-06 16:12 | 38.86926 | -106.92488 | 36351 ft | 489 kts | 61° |
| 2026-05-06 16:12 | 38.88387 | -106.88562 | 35886 ft | 487 kts | 61° |
| 2026-05-06 16:12 | 38.89845 | -106.84643 | 35429 ft | 485 kts | 60° |
| 2026-05-06 16:12 | 38.91295 | -106.80741 | 34947 ft | 483 kts | 60° |
| 2026-05-06 16:13 | 38.92737 | -106.76853 | 34504 ft | 482 kts | 60° |
| 2026-05-06 16:13 | 38.94173 | -106.72977 | 34033 ft | 480 kts | 60° |
| 2026-05-06 16:13 | 38.95605 | -106.69109 | 33556 ft | 479 kts | 60° |
| 2026-05-06 16:13 | 38.97046 | -106.65198 | 33056 ft | 488 kts | 61° |
| 2026-05-06 16:14 | 38.98506 | -106.61245 | 32596 ft | 491 kts | 61° |
| 2026-05-06 16:14 | 38.99973 | -106.57297 | 32115 ft | 484 kts | 61° |
| 2026-05-06 16:14 | 39.01392 | -106.53423 | 31658 ft | 475 kts | 62° |
| 2026-05-06 16:14 | 39.02784 | -106.49588 | 31220 ft | 473 kts | 62° |
| 2026-05-06 16:15 | 39.04184 | -106.45760 | 30789 ft | 472 kts | 62° |
| 2026-05-06 16:15 | 39.05576 | -106.41951 | 30346 ft | 470 kts | 63° |
| 2026-05-06 16:15 | 39.06968 | -106.38147 | 29854 ft | 469 kts | 63° |
| 2026-05-06 16:15 | 39.08347 | -106.34374 | 29433 ft | 464 kts | 63° |
| 2026-05-06 16:16 | 39.09256 | -106.31873 | 29111 ft | 467 kts | 63° |
| 2026-05-06 16:16 | 39.10626 | -106.28090 | 28664 ft | 463 kts | 63° |
| 2026-05-06 16:16 | 39.12419 | -106.23145 | 28067 ft | 458 kts | 63° |
| 2026-05-06 16:16 | 39.13763 | -106.19448 | 27626 ft | 454 kts | 63° |
| 2026-05-06 16:17 | 39.15092 | -106.15780 | 27171 ft | 451 kts | 63° |
| 2026-05-06 16:17 | 39.16407 | -106.12132 | 26739 ft | 448 kts | 63° |
| 2026-05-06 16:17 | 39.17289 | -106.09673 | 26447 ft | 446 kts | 63° |
| 2026-05-06 16:17 | 39.18587 | -106.06057 | 26021 ft | 443 kts | 63° |
| 2026-05-06 16:18 | 39.19875 | -106.02473 | 25592 ft | 439 kts | 63° |
| 2026-05-06 16:18 | 39.21154 | -105.98911 | 25179 ft | 436 kts | 64° |
| 2026-05-06 16:18 | 39.22419 | -105.95379 | 24747 ft | 432 kts | 64° |
| 2026-05-06 16:18 | 39.23674 | -105.91869 | 24363 ft | 429 kts | 64° |
| 2026-05-06 16:19 | 39.24905 | -105.88436 | 23951 ft | 425 kts | 64° |
| 2026-05-06 16:19 | 39.26154 | -105.84987 | 23507 ft | 424 kts | 64° |
| 2026-05-06 16:19 | 39.27395 | -105.81555 | 23075 ft | 419 kts | 64° |
| 2026-05-06 16:19 | 39.28614 | -105.78156 | 22693 ft | 416 kts | 64° |
| 2026-05-06 16:20 | 39.29824 | -105.74778 | 22287 ft | 412 kts | 64° |
| 2026-05-06 16:20 | 39.31026 | -105.71432 | 21883 ft | 409 kts | 64° |
| 2026-05-06 16:20 | 39.32213 | -105.68124 | 21495 ft | 400 kts | 63° |
| 2026-05-06 16:20 | 39.33363 | -105.64925 | 21111 ft | 388 kts | 63° |
| 2026-05-06 16:21 | 39.34515 | -105.61795 | 20748 ft | 385 kts | 63° |
| 2026-05-06 16:21 | 39.35664 | -105.58680 | 20371 ft | 383 kts | 63° |
| 2026-05-06 16:21 | 39.36793 | -105.55576 | 20008 ft | 380 kts | 63° |
| 2026-05-06 16:21 | 39.37911 | -105.52488 | 19639 ft | 378 kts | 63° |
| 2026-05-06 16:22 | 39.39024 | -105.49421 | 19297 ft | 375 kts | 63° |
| 2026-05-06 16:22 | 39.40122 | -105.46406 | 18934 ft | 361 kts | 62° |
| 2026-05-06 16:22 | 39.41154 | -105.43527 | 18570 ft | 347 kts | 64° |
| 2026-05-06 16:22 | 39.41688 | -105.40523 | 18131 ft | 343 kts | 86° |
| 2026-05-06 16:23 | 39.41716 | -105.37471 | 17871 ft | 338 kts | 89° |
| 2026-05-06 16:23 | 39.41722 | -105.34416 | 17414 ft | 340 kts | 89° |
| 2026-05-06 16:23 | 39.41737 | -105.31382 | 17056 ft | 335 kts | 89° |
| 2026-05-06 16:23 | 39.41759 | -105.28392 | 16723 ft | 330 kts | 88° |
| 2026-05-06 16:24 | 39.41775 | -105.25455 | 16413 ft | 324 kts | 89° |
| 2026-05-06 16:24 | 39.41787 | -105.22548 | 16077 ft | 323 kts | 89° |
| 2026-05-06 16:24 | 39.41804 | -105.19655 | 15758 ft | 321 kts | 89° |
| 2026-05-06 16:24 | 39.41820 | -105.16778 | 15442 ft | 319 kts | 88° |
| 2026-05-06 16:25 | 39.41830 | -105.13961 | 15147 ft | 315 kts | 89° |
| 2026-05-06 16:25 | 39.41840 | -105.11145 | 14844 ft | 311 kts | 89° |
| 2026-05-06 16:25 | 39.41849 | -105.08367 | 14543 ft | 308 kts | 89° |
| 2026-05-06 16:25 | 39.41860 | -105.05619 | 14255 ft | 304 kts | 89° |
| 2026-05-06 16:26 | 39.41876 | -105.02915 | 13930 ft | 295 kts | 89° |
| 2026-05-06 16:26 | 39.41882 | -105.00332 | 13613 ft | 279 kts | 89° |
| 2026-05-06 16:26 | 39.41885 | -104.97887 | 13312 ft | 265 kts | 89° |
| 2026-05-06 16:26 | 39.41891 | -104.95565 | 13067 ft | 252 kts | 89° |
| 2026-05-06 16:27 | 39.41996 | -104.93333 | 12807 ft | 245 kts | 82° |
| 2026-05-06 16:27 | 39.42205 | -104.91148 | 12587 ft | 247 kts | 84° |
| 2026-05-06 16:27 | 39.42384 | -104.88936 | 12364 ft | 248 kts | 84° |
| 2026-05-06 16:27 | 39.42570 | -104.86720 | 12140 ft | 247 kts | 83° |
| 2026-05-06 16:28 | 39.42769 | -104.84507 | 11855 ft | 247 kts | 83° |
| 2026-05-06 16:28 | 39.42966 | -104.82313 | 11609 ft | 244 kts | 83° |
| 2026-05-06 16:28 | 39.43156 | -104.80146 | 11372 ft | 242 kts | 83° |
| 2026-05-06 16:28 | 39.43348 | -104.77993 | 11140 ft | 240 kts | 83° |
| 2026-05-06 16:29 | 39.43610 | -104.75883 | 10944 ft | 234 kts | 73° |
| 2026-05-06 16:29 | 39.44208 | -104.73952 | 10982 ft | 234 kts | 67° |
| 2026-05-06 16:29 | 39.44839 | -104.71995 | 10994 ft | 236 kts | 68° |
| 2026-05-06 16:29 | 39.45487 | -104.70041 | 10978 ft | 238 kts | 62° |
| 2026-05-06 16:30 | 39.46587 | -104.68613 | 10946 ft | 239 kts | 32° |
| 2026-05-06 16:30 | 39.47523 | -104.67993 | 10997 ft | 238 kts | 26° |
| 2026-05-06 16:30 | 39.49556 | -104.66796 | 10995 ft | 241 kts | 25° |
| 2026-05-06 16:30 | 39.51078 | -104.65888 | 10995 ft | 241 kts | 26° |
| 2026-05-06 16:31 | 39.52612 | -104.64962 | 10829 ft | 246 kts | 25° |
| 2026-05-06 16:31 | 39.54270 | -104.64486 | 10499 ft | 246 kts | 2° |
| 2026-05-06 16:31 | 39.55967 | -104.64502 | 10263 ft | 242 kts | 0° |
| 2026-05-06 16:31 | 39.57647 | -104.64494 | 9988 ft | 241 kts | 2° |
| 2026-05-06 16:32 | 39.59297 | -104.64464 | 9662 ft | 239 kts | 1° |
| 2026-05-06 16:32 | 39.60945 | -104.64443 | 9368 ft | 236 kts | 1° |
| 2026-05-06 16:32 | 39.62584 | -104.64425 | 9071 ft | 233 kts | 2° |
| 2026-05-06 16:32 | 39.64199 | -104.64403 | 8804 ft | 231 kts | 2° |
| 2026-05-06 16:33 | 39.65801 | -104.64382 | 8521 ft | 229 kts | 1° |
| 2026-05-06 16:33 | 39.67322 | -104.64365 | 8252 ft | 229 kts | 2° |
| 2026-05-06 16:33 | 39.68903 | -104.64344 | 7984 ft | 226 kts | 2° |
| 2026-05-06 16:34 | 39.71999 | -104.64317 | 7699 ft | 228 kts | 2° |
| 2026-05-06 16:34 | 39.73576 | -104.64300 | 7382 ft | 223 kts | 2° |
| 2026-05-06 16:34 | 39.75116 | -104.64269 | 7100 ft | 219 kts | 2° |
| 2026-05-06 16:34 | 39.76625 | -104.64246 | 6813 ft | 215 kts | 2° |
| 2026-05-06 16:35 | 39.77983 | -104.64232 | 6500 ft | 177 kts | 1° |
| 2026-05-06 16:35 | 39.79144 | -104.64227 | 6257 ft | 168 kts | 2° |
| 2026-05-06 16:35 | 39.80290 | -104.64205 | 5996 ft | 150 kts | 3° |
| 2026-05-06 16:35 | 39.81225 | -104.64191 | 5790 ft | 124 kts | 4° |
| 2026-05-06 16:36 | 39.82034 | -104.64192 | 5637 ft | 115 kts | 4° |
| 2026-05-06 16:36 | 39.82826 | -104.64173 | 5492 ft | 115 kts | 5° |
| 2026-05-06 16:36 | 39.83624 | -104.64169 | 5373 ft | 113 kts | 4° |
| 2026-05-06 16:36 | 39.84266 | -104.64159 | 5364 ft | 71 kts | 359° |
| 2026-05-06 16:37 | 39.84656 | -104.64152 | 5359 ft | 45 kts | 359° |
| 2026-05-06 16:37 | 39.84950 | -104.64154 | 5357 ft | 38 kts | 1° |
| 2026-05-06 16:37 | 39.85192 | -104.64213 | 5355 ft | 35 kts | 333° |
| 2026-05-06 16:37 | 39.85384 | -104.64347 | 5353 ft | 27 kts | 335° |
| 2026-05-06 16:38 | 39.85534 | -104.64358 | 5351 ft | 21 kts | 1° |
| 2026-05-06 16:38 | 39.85662 | -104.64376 | 5350 ft | 13 kts | 301° |
| 2026-05-06 16:38 | 39.85666 | -104.64488 | 5350 ft | 13 kts | 271° |
| 2026-05-06 16:38 | 39.85667 | -104.64603 | 5353 ft | 15 kts | 270° |
| 2026-05-06 16:39 | 39.85667 | -104.64747 | 5357 ft | 15 kts | 270° |
| 2026-05-06 16:39 | 39.85668 | -104.64872 | 5361 ft | 13 kts | 271° |
| 2026-05-06 16:39 | 39.85669 | -104.64975 | 5362 ft | 11 kts | 271° |
| 2026-05-06 16:39 | 39.85669 | -104.65103 | 5368 ft | 18 kts | 270° |
| 2026-05-06 16:40 | 39.85671 | -104.65280 | 5373 ft | 19 kts | 270° |
| 2026-05-06 16:40 | 39.85672 | -104.65439 | 5378 ft | 16 kts | 271° |
| 2026-05-06 16:40 | 39.85674 | -104.65580 | 5382 ft | 17 kts | 271° |
| 2026-05-06 16:40 | 39.85674 | -104.65777 | 5388 ft | 26 kts | 270° |
| 2026-05-06 16:41 | 39.85677 | -104.66011 | 5390 ft | 26 kts | 271° |
| 2026-05-06 16:41 | 39.85671 | -104.66216 | 5385 ft | 14 kts | 237° |
| 2026-05-06 16:41 | 39.85595 | -104.66238 | 5391 ft | 10 kts | 185° |
| 2026-05-06 16:41 | 39.85505 | -104.66238 | 5394 ft | 17 kts | 180° |
| 2026-05-06 16:42 | 39.85378 | -104.66238 | 5394 ft | 18 kts | 180° |
| 2026-05-06 16:42 | 39.85249 | -104.66239 | 5394 ft | 19 kts | 180° |
| 2026-05-06 16:42 | 39.85125 | -104.66241 | 5397 ft | 17 kts | 180° |
| 2026-05-06 16:42 | 39.85014 | -104.66243 | 5398 ft | 15 kts | 180° |
| 2026-05-06 16:43 | 39.84914 | -104.66244 | 5395 ft | 16 kts | 180° |
| 2026-05-06 16:43 | 39.84789 | -104.66245 | 5402 ft | 19 kts | 180° |
| 2026-05-06 16:43 | 39.84669 | -104.66248 | 5403 ft | 16 kts | 180° |
| 2026-05-06 16:43 | 39.84557 | -104.66248 | 5411 ft | 16 kts | 180° |
| 2026-05-06 16:44 | 39.84449 | -104.66248 | 5412 ft | 15 kts | 181° |
| 2026-05-06 16:44 | 39.84339 | -104.66250 | 5408 ft | 18 kts | 180° |
| 2026-05-06 16:44 | 39.84220 | -104.66252 | 5415 ft | 17 kts | 181° |
| 2026-05-06 16:44 | 39.84106 | -104.66255 | 5410 ft | 16 kts | 181° |
| 2026-05-06 16:45 | 39.84021 | -104.66299 | 5418 ft | 12 kts | 256° |
| 2026-05-06 16:45 | 39.83974 | -104.66372 | 5406 ft | 11 kts | 182° |
| 2026-05-06 16:45 | 39.83889 | -104.66377 | 5407 ft | 13 kts | 195° |
| 2026-05-06 16:45 | 39.83823 | -104.66460 | 5409 ft | 16 kts | 253° |
| 2026-05-06 16:46 | 39.83839 | -104.66542 | 5405 ft | 1 kts | 1° |
| 2026-05-06 16:46 | 39.83855 | -104.66538 | 5409 ft | 3 kts | 5° |
| 2026-05-06 16:46 | 39.83874 | -104.66538 | 5403 ft | 1 kts | 359° |
| 2026-05-06 16:46 | 39.83875 | -104.66538 | 5403 ft | 0 kts | 359° |
| 2026-05-06 16:48 | 39.83874 | -104.66538 | 5403 ft | 0 kts | 359° |